Time;durP1;ratioP1;P1;durP2;ratioP2;P2;SDS_P1;SDS_P2;PMS_P1;PMS_P2;Temp;Humidity;BMP_temperature;BMP_pressure;BME280_temperature;BME280_humidity;BME280_pressure;Samples;Min_cycle;Max_cycle;Signal;HPM_P1;HPM_P2
2022/02/01 00:02:30;;;;;;;9.07;2.80;;;5.60;67.60;;;;;;5078974;28;20195;-87
2022/02/01 00:05:12;;;;;;;9.13;2.47;;;5.70;67.40;;;;;;5079088;28;20175;-87
2022/02/01 00:10:14;;;;;;;7.63;2.23;;;5.60;73.00;;;;;;5079992;28;20243;-87
2022/02/01 00:36:48;;;;;;;13.10;2.87;;;5.70;93.10;;;;;;5079958;28;20184;-87
2022/02/01 00:39:15;;;;;;;14.20;4.00;;;5.70;93.10;;;;;;5079694;28;20612;-87
2022/02/01 00:41:50;;;;;;;15.00;3.10;;;5.70;93.30;;;;;;5078334;28;20672;-86
2022/02/01 00:44:17;;;;;;;13.60;3.37;;;5.70;93.20;;;;;;5078954;28;20183;-88
2022/02/01 00:46:43;;;;;;;12.13;3.50;;;5.80;91.40;;;;;;5083648;28;20207;-87
2022/02/01 00:49:17;;;;;;;12.10;3.00;;;5.60;89.40;;;;;;5078491;28;20737;-90
2022/02/01 00:51:46;;;;;;;13.83;3.03;;;5.70;90.70;;;;;;5078238;28;20195;-88
2022/02/01 00:54:11;;;;;;;12.30;3.40;;;5.50;90.30;;;;;;5065644;28;20267;-86
2022/02/01 00:56:37;;;;;;;12.03;3.40;;;5.30;91.00;;;;;;5084554;28;20200;-87
2022/02/01 00:59:03;;;;;;;10.50;3.23;;;5.40;91.70;;;;;;5081354;28;20208;-87
2022/02/01 01:01:29;;;;;;;21.50;4.23;;;5.40;91.00;;;;;;5078132;28;20176;-87
2022/02/01 01:03:54;;;;;;;16.33;3.50;;;5.50;88.20;;;;;;5078769;28;20172;-87
2022/02/01 01:06:21;;;;;;;11.43;3.30;;;5.60;87.10;;;;;;5076801;28;20632;-87
2022/02/01 01:08:48;;;;;;;11.70;3.77;;;5.30;87.10;;;;;;5076785;28;20226;-87
2022/02/01 01:11:14;;;;;;;16.00;3.73;;;5.40;88.90;;;;;;5077593;28;20191;-87
2022/02/01 01:43:57;;;;;;;14.97;2.87;;;4.90;83.80;;;;;;5080153;28;20187;-86
2022/02/01 01:54:27;;;;;;;13.23;3.43;;;5.00;79.30;;;;;;5084613;28;20216;-86
2022/02/01 01:56:55;;;;;;;14.27;3.27;;;5.00;76.50;;;;;;5095799;28;20164;-87
2022/02/01 01:59:24;;;;;;;13.60;2.97;;;5.00;75.70;;;;;;5083194;28;20187;-86
2022/02/01 02:01:50;;;;;;;8.93;3.50;;;4.90;71.60;;;;;;5077126;28;20175;-86
2022/02/01 02:04:17;;;;;;;11.27;3.63;;;5.20;71.00;;;;;;5075774;28;20753;-86
2022/02/01 02:06:52;;;;;;;11.07;3.30;;;4.80;74.10;;;;;;5077317;28;20233;-86
2022/02/01 02:09:18;;;;;;;10.70;3.03;;;4.80;76.20;;;;;;5075256;28;20215;-87
2022/02/01 02:11:56;;;;;;;12.47;3.27;;;4.70;76.10;;;;;;5074996;28;20172;-85
2022/02/01 02:14:24;;;;;;;16.67;4.53;;;4.80;71.40;;;;;;5086459;28;20164;-88
2022/02/01 02:17:02;;;;;;;11.30;3.20;;;4.80;67.50;;;;;;5096975;28;20176;-85
2022/02/01 02:19:32;;;;;;;16.07;3.40;;;4.90;62.10;;;;;;5088991;28;20164;-86
2022/02/01 02:22:01;;;;;;;10.03;3.63;;;4.80;60.10;;;;;;5085175;28;20172;-87
2022/02/01 02:24:40;;;;;;;9.80;3.13;;;4.80;60.30;;;;;;5075845;28;20230;-87
2022/02/01 02:27:09;;;;;;;9.33;2.97;;;4.80;61.20;;;;;;5075500;28;20211;-86
2022/02/01 02:29:35;;;;;;;9.67;3.13;;;4.80;60.70;;;;;;5076751;28;20224;-88
2022/02/01 02:32:04;;;;;;;8.27;2.60;;;4.80;60.10;;;;;;5075569;28;20172;-86
2022/02/01 02:34:31;;;;;;;9.20;2.80;;;4.80;59.50;;;;;;5076243;28;20182;-86
2022/02/01 02:37:03;;;;;;;14.47;3.40;;;4.60;62.60;;;;;;5086280;28;20190;-85
2022/02/01 02:39:47;;;;;;;11.33;3.37;;;4.70;64.80;;;;;;5097873;28;20247;-86
2022/02/01 02:42:24;;;;;;;12.07;3.20;;;4.70;65.40;;;;;;5089372;28;20164;-88
2022/02/01 02:45:09;;;;;;;11.20;3.60;;;4.70;65.10;;;;;;5083965;28;20218;-87
2022/02/01 02:48:03;;;;;;;17.50;3.30;;;4.70;63.70;;;;;;5078840;28;20169;-86
2022/02/01 02:50:29;;;;;;;10.87;2.87;;;4.70;66.20;;;;;;5075232;28;20199;-86
2022/02/01 02:52:54;;;;;;;8.87;3.00;;;4.70;65.40;;;;;;5078571;28;20164;-87
2022/02/01 02:55:20;;;;;;;8.83;2.77;;;4.70;67.30;;;;;;5076341;28;20176;-86
2022/02/01 02:57:46;;;;;;;12.33;3.47;;;4.70;66.20;;;;;;5075689;28;20240;-86
2022/02/01 03:00:12;;;;;;;12.40;3.13;;;4.70;69.90;;;;;;5075596;28;20194;-87
2022/02/01 03:02:38;;;;;;;7.70;2.90;;;4.80;68.60;;;;;;5086042;28;20233;-86
2022/02/01 03:05:04;;;;;;;9.40;3.13;;;4.90;67.80;;;;;;5090494;28;20501;-87
2022/02/01 03:07:29;;;;;;;11.87;3.50;;;4.90;70.10;;;;;;5088668;28;20172;-84
2022/02/01 03:09:55;;;;;;;8.97;2.83;;;4.90;69.80;;;;;;5083082;28;20263;-86
2022/02/01 03:12:35;;;;;;;15.70;3.97;;;4.90;71.50;;;;;;5079596;28;20245;-87
2022/02/01 03:15:21;;;;;;;16.30;3.30;;;4.90;73.60;;;;;;5076490;28;20168;-87
2022/02/01 03:20:30;;;;;;;14.53;3.43;;;4.90;77.40;;;;;;5079383;28;20168;-87
2022/02/01 03:22:57;;;;;;;14.17;3.90;;;4.90;78.10;;;;;;5096021;28;20176;-86
2022/02/01 03:25:28;;;;;;;12.77;3.30;;;4.90;78.70;;;;;;5081426;28;20195;-87
2022/02/01 03:27:54;;;;;;;11.20;3.80;;;4.90;79.60;;;;;;5074423;28;20188;-88
2022/02/01 03:30:22;;;;;;;9.40;3.70;;;4.90;80.80;;;;;;5075131;28;20204;-88
2022/02/01 03:32:48;;;;;;;13.43;3.63;;;4.90;81.50;;;;;;5076250;28;20180;-87
2022/02/01 03:35:14;;;;;;;15.00;3.97;;;4.90;82.90;;;;;;5076722;28;20184;-88
2022/02/01 03:37:40;;;;;;;15.97;3.80;;;5.00;83.10;;;;;;5074910;28;20179;-87
2022/02/01 03:40:09;;;;;;;17.00;4.33;;;5.00;83.30;;;;;;5073174;28;20172;-87
2022/02/01 03:42:35;;;;;;;12.90;4.33;;;5.00;85.30;;;;;;5074878;28;20169;-88
2022/02/01 03:45:01;;;;;;;10.40;3.80;;;4.90;87.10;;;;;;5085932;28;20222;-87
2022/02/01 03:47:31;;;;;;;12.47;4.03;;;4.90;88.40;;;;;;5090158;28;20176;-87
2022/02/01 03:49:59;;;;;;;15.70;3.97;;;4.90;88.70;;;;;;5091471;28;20202;-87
2022/02/01 03:52:25;;;;;;;11.50;3.70;;;4.80;90.40;;;;;;5079735;28;20263;-87
2022/02/01 03:54:51;;;;;;;12.70;3.97;;;4.80;90.60;;;;;;5074893;28;20659;-87
2022/02/01 03:57:17;;;;;;;11.77;4.07;;;4.90;90.30;;;;;;5078572;28;20588;-87
2022/02/01 03:59:46;;;;;;;13.50;4.17;;;4.80;90.60;;;;;;5077847;28;20192;-87
2022/02/01 04:02:14;;;;;;;11.43;4.37;;;4.70;91.40;;;;;;5077682;28;20179;-87
2022/02/01 04:04:39;;;;;;;16.33;4.97;;;4.90;91.10;;;;;;5077247;28;20180;-87
2022/02/01 04:07:08;;;;;;;16.03;5.67;;;4.90;90.50;;;;;;5077208;28;20168;-87
2022/02/01 04:09:35;;;;;;;17.10;4.93;;;5.00;90.80;;;;;;5077939;28;20208;-87
2022/02/01 04:12:04;;;;;;;10.67;4.57;;;5.10;90.90;;;;;;5076223;28;20195;-87
2022/02/01 04:14:33;;;;;;;12.40;5.37;;;4.90;91.40;;;;;;5077246;28;20195;-88
2022/02/01 04:17:01;;;;;;;12.47;5.07;;;5.00;92.10;;;;;;5077420;28;20257;-87
2022/02/01 04:19:29;;;;;;;15.50;5.37;;;5.10;91.80;;;;;;5077603;28;20184;-86
2022/02/01 04:24:21;;;;;;;19.50;5.87;;;5.30;90.80;;;;;;5080316;28;20195;-88
2022/02/01 04:26:47;;;;;;;15.07;5.37;;;5.40;90.90;;;;;;5087410;28;20168;-86
2022/02/01 04:29:13;;;;;;;15.27;5.30;;;5.10;91.20;;;;;;5088783;28;20196;-87
2022/02/01 04:31:38;;;;;;;15.73;6.13;;;5.20;92.20;;;;;;5081115;28;20172;-87
2022/02/01 04:34:04;;;;;;;16.67;6.20;;;5.40;91.40;;;;;;5076586;28;20259;-86
2022/02/01 04:36:30;;;;;;;14.87;5.70;;;5.30;90.60;;;;;;5076861;28;20227;-87
2022/02/01 04:38:57;;;;;;;14.40;6.47;;;5.20;92.10;;;;;;5076538;28;20179;-87
2022/02/01 04:41:25;;;;;;;13.93;5.83;;;5.20;93.00;;;;;;5076488;28;20176;-86
2022/02/01 04:43:51;;;;;;;14.80;5.87;;;5.20;93.10;;;;;;5088730;28;20218;-88
2022/02/01 04:46:21;;;;;;;17.33;6.20;;;5.20;93.20;;;;;;5096228;28;20184;-87
2022/02/01 04:48:48;;;;;;;14.43;5.93;;;5.10;93.70;;;;;;5078415;28;20251;-86
2022/02/01 04:51:16;;;;;;;21.47;6.40;;;5.10;94.90;;;;;;5064474;28;20218;-86
2022/02/01 04:53:45;;;;;;;15.77;6.10;;;5.00;95.20;;;;;;5078856;28;20156;-87
2022/02/01 04:56:15;;;;;;;14.30;5.70;;;5.00;96.20;;;;;;5075680;28;20176;-88
2022/02/01 04:58:41;;;;;;;15.73;5.37;;;4.80;97.00;;;;;;5075734;28;20172;-86
2022/02/01 05:01:07;;;;;;;15.83;5.23;;;4.80;97.60;;;;;;5074659;28;20171;-88
2022/02/01 05:03:33;;;;;;;20.47;6.40;;;4.90;98.10;;;;;;5076098;28;20176;-86
2022/02/01 05:06:03;;;;;;;17.30;5.80;;;5.10;97.70;;;;;;5077273;28;20192;-86
2022/02/01 05:08:29;;;;;;;16.23;6.07;;;4.90;98.20;;;;;;5094431;28;20212;-85
2022/02/01 05:10:55;;;;;;;12.97;5.77;;;4.80;98.30;;;;;;5098364;28;20179;-86
2022/02/01 05:16:43;;;;;;;15.87;6.37;;;4.70;99.40;;;;;;5083069;28;20171;-85
2022/02/01 05:19:34;;;;;;;17.73;5.80;;;4.70;99.90;;;;;;5076835;28;20168;-86
2022/02/01 05:22:05;;;;;;;15.90;7.10;;;4.70;99.90;;;;;;5076870;28;20172;-86
2022/02/01 05:24:33;;;;;;;15.47;6.27;;;4.70;99.90;;;;;;5077358;28;20235;-86
2022/02/01 05:27:01;;;;;;;15.87;6.43;;;4.70;99.90;;;;;;5078618;28;20160;-86
2022/02/01 05:29:27;;;;;;;16.07;6.53;;;4.60;99.90;;;;;;5099137;28;20226;-85
2022/02/01 05:31:53;;;;;;;19.90;7.00;;;4.60;99.90;;;;;;5097278;28;20231;-86
2022/02/01 05:34:19;;;;;;;18.67;6.90;;;4.60;99.90;;;;;;5097175;28;20172;-85
2022/02/01 05:36:45;;;;;;;20.33;7.07;;;4.60;99.90;;;;;;5082868;28;20197;-86
2022/02/01 05:39:27;;;;;;;21.43;7.90;;;4.70;99.90;;;;;;5075710;28;20183;-87
2022/02/01 05:41:55;;;;;;;25.67;7.13;;;4.50;99.90;;;;;;5075733;28;20184;-85
2022/02/01 05:44:23;;;;;;;17.23;6.87;;;4.40;99.90;;;;;;5075330;28;20184;-87
2022/02/01 05:46:48;;;;;;;16.80;7.27;;;4.40;99.90;;;;;;5075785;28;20167;-86
2022/02/01 05:49:16;;;;;;;17.83;7.20;;;4.50;99.90;;;;;;5075303;28;20216;-87
2022/02/01 05:51:43;;;;;;;22.20;7.63;;;4.40;99.90;;;;;;5074842;28;20199;-86
2022/02/01 05:54:09;;;;;;;19.23;7.03;;;4.50;99.90;;;;;;5075875;28;20172;-87
2022/02/01 05:56:34;;;;;;;23.77;8.43;;;4.60;99.90;;;;;;5075640;28;20175;-86
2022/02/01 05:59:00;;;;;;;18.77;7.87;;;4.60;99.90;;;;;;5075851;28;20195;-87
2022/02/01 06:01:26;;;;;;;17.70;7.87;;;4.60;99.90;;;;;;5076828;28;20152;-86
2022/02/01 06:03:52;;;;;;;20.23;8.03;;;4.60;99.90;;;;;;5083311;28;20180;-87
2022/02/01 06:06:21;;;;;;;21.93;7.63;;;4.60;99.90;;;;;;5096611;28;20228;-85
2022/02/01 06:08:49;;;;;;;27.30;8.83;;;4.50;99.90;;;;;;5086068;28;20208;-86
2022/02/01 06:11:15;;;;;;;20.20;8.60;;;4.50;99.90;;;;;;5076818;28;20168;-86
2022/02/01 06:13:40;;;;;;;22.33;9.00;;;4.60;99.90;;;;;;5076243;28;20203;-88
2022/02/01 06:16:07;;;;;;;25.93;10.27;;;4.60;99.90;;;;;;5075407;28;20184;-88
2022/02/01 06:18:33;;;;;;;22.67;10.10;;;4.60;99.90;;;;;;5074683;28;20180;-89
2022/02/01 06:21:00;;;;;;;25.57;11.17;;;4.60;99.90;;;;;;5075609;28;20190;-86
2022/02/01 06:23:27;;;;;;;25.87;10.33;;;4.60;99.90;;;;;;5074785;28;20203;-88
2022/02/01 06:25:55;;;;;;;21.00;11.17;;;4.70;99.90;;;;;;5075463;28;20267;-86
2022/02/01 06:28:25;;;;;;;22.47;10.00;;;4.80;99.90;;;;;;5075337;28;20579;-87
2022/02/01 06:30:55;;;;;;;29.37;12.60;;;4.80;99.90;;;;;;5085093;28;20528;-89
2022/02/01 06:33:21;;;;;;;19.40;10.10;;;5.00;99.90;;;;;;5080319;28;20191;-87
2022/02/01 06:35:47;;;;;;;21.80;11.60;;;4.90;99.90;;;;;;5075213;28;20200;-87
2022/02/01 06:38:13;;;;;;;19.30;10.50;;;5.10;99.90;;;;;;5078938;28;20172;-86
2022/02/01 06:40:44;;;;;;;19.93;10.97;;;4.90;99.90;;;;;;5079862;28;20180;-88
2022/02/01 06:43:11;;;;;;;24.97;10.93;;;5.00;99.90;;;;;;5081092;28;20180;-86
2022/02/01 06:45:37;;;;;;;19.10;10.70;;;5.00;99.90;;;;;;5074999;28;20211;-87
2022/02/01 06:48:03;;;;;;;18.70;11.43;;;5.00;99.90;;;;;;5077682;28;20561;-88
2022/02/01 06:50:29;;;;;;;24.30;11.00;;;5.00;99.90;;;;;;5074624;28;20196;-89
2022/02/01 06:52:57;;;;;;;22.37;11.03;;;5.10;99.90;;;;;;5075467;28;20172;-87
2022/02/01 06:58:16;;;;;;;18.87;11.80;;;5.20;99.90;;;;;;5076913;28;20176;-86
2022/02/01 07:00:42;;;;;;;19.93;10.80;;;5.20;99.90;;;;;;5073929;28;20535;-85
2022/02/01 07:03:09;;;;;;;18.63;11.63;;;5.20;99.90;;;;;;5075655;28;20180;-85
2022/02/01 07:05:35;;;;;;;19.47;11.63;;;5.40;99.90;;;;;;5074492;28;20206;-87
2022/02/01 07:08:01;;;;;;;17.73;11.47;;;5.20;99.90;;;;;;5075411;28;20257;-87
2022/02/01 07:10:28;;;;;;;22.30;12.13;;;5.30;99.90;;;;;;5060689;28;20191;-89
2022/02/01 07:12:54;;;;;;;15.33;10.57;;;5.30;99.90;;;;;;5077945;28;20184;-88
2022/02/01 07:15:19;;;;;;;21.00;11.33;;;5.30;99.90;;;;;;5075170;28;20186;-86
2022/02/01 07:17:50;;;;;;;18.93;12.07;;;5.30;99.90;;;;;;5075370;28;20176;-89
2022/02/01 07:20:17;;;;;;;18.87;11.17;;;5.40;99.90;;;;;;5077947;28;20175;-88
2022/02/01 07:22:47;;;;;;;15.10;12.30;;;5.50;99.90;;;;;;5075449;28;20199;-89
2022/02/01 07:25:32;;;;;;;17.93;10.93;;;5.40;99.90;;;;;;5076609;28;20267;-88
2022/02/01 07:28:03;;;;;;;19.07;11.10;;;5.40;99.90;;;;;;5078424;28;20180;-88
2022/02/01 07:30:29;;;;;;;19.03;12.67;;;5.40;99.90;;;;;;5080787;28;20623;-88
2022/02/01 07:32:55;;;;;;;22.47;13.03;;;5.50;99.90;;;;;;5098174;28;20168;-89
2022/02/01 07:35:25;;;;;;;22.27;12.70;;;5.50;99.90;;;;;;5080718;28;20201;-85
2022/02/01 07:37:54;;;;;;;18.47;12.63;;;5.50;99.90;;;;;;5078391;28;20647;-86
2022/02/01 07:40:20;;;;;;;20.47;13.33;;;5.50;99.90;;;;;;5077312;28;20242;-86
2022/02/01 07:42:46;;;;;;;20.73;12.70;;;5.50;99.90;;;;;;5077796;28;20194;-88
2022/02/01 07:45:14;;;;;;;23.50;13.97;;;5.50;99.90;;;;;;5078940;28;20199;-86
2022/02/01 07:47:40;;;;;;;22.83;13.63;;;5.60;99.90;;;;;;5080949;28;20527;-85
2022/02/01 07:50:08;;;;;;;25.17;13.57;;;5.60;99.90;;;;;;5090294;28;20382;-86
2022/02/01 07:52:34;;;;;;;20.27;14.13;;;5.60;99.90;;;;;;5078013;28;20650;-85
2022/02/01 07:55:02;;;;;;;21.30;14.67;;;5.70;99.90;;;;;;5076991;28;20179;-86
2022/02/01 07:57:28;;;;;;;18.30;12.87;;;5.60;99.90;;;;;;5078272;28;20175;-86
2022/02/01 07:59:54;;;;;;;20.60;14.73;;;5.70;99.90;;;;;;5078153;28;20168;-88
2022/02/01 08:02:24;;;;;;;20.73;14.23;;;5.70;99.90;;;;;;5078012;28;20624;-86
2022/02/01 08:04:52;;;;;;;24.40;14.10;;;5.80;99.90;;;;;;5078802;28;20537;-87
2022/02/01 08:07:20;;;;;;;25.50;15.33;;;5.80;99.90;;;;;;5078422;28;20180;-88
2022/02/01 08:09:50;;;;;;;21.30;12.83;;;5.80;99.90;;;;;;5080451;28;20268;-86
2022/02/01 08:17:45;;;;;;;21.83;13.97;;;5.90;99.90;;;;;;5079839;28;20217;-87
2022/02/01 08:20:15;;;;;;;18.80;13.17;;;5.90;99.90;;;;;;5077784;28;20205;-87
2022/02/01 08:25:10;;;;;;;16.40;11.67;;;6.00;99.90;;;;;;5078187;28;20198;-86
2022/02/01 08:27:36;;;;;;;22.23;12.00;;;6.10;99.90;;;;;;5077684;28;20651;-89
2022/02/01 08:30:08;;;;;;;17.90;11.80;;;6.00;99.90;;;;;;5078339;28;20584;-87
2022/02/01 08:32:34;;;;;;;17.63;11.77;;;6.00;99.90;;;;;;5061840;28;20186;-88
2022/02/01 08:34:59;;;;;;;19.67;11.90;;;6.00;99.90;;;;;;5078273;28;20549;-86
2022/02/01 08:37:26;;;;;;;15.37;11.17;;;6.10;99.90;;;;;;5083012;28;20176;-86
2022/02/01 08:39:52;;;;;;;18.60;11.97;;;6.00;99.90;;;;;;5079407;28;20236;-90
2022/02/01 08:42:20;;;;;;;16.57;11.50;;;6.10;99.90;;;;;;5077876;28;20188;-89
2022/02/01 08:44:46;;;;;;;15.83;10.30;;;6.20;99.90;;;;;;5079098;28;20181;-92
2022/02/01 08:47:13;;;;;;;15.20;11.93;;;6.10;99.90;;;;;;5080376;28;20652;-88
2022/02/01 08:49:39;;;;;;;17.23;12.57;;;6.20;99.90;;;;;;5078386;28;20212;-90
2022/02/01 08:52:10;;;;;;;16.73;12.13;;;6.10;99.90;;;;;;5079794;28;20176;-88
2022/02/01 08:54:37;;;;;;;19.10;13.50;;;6.10;99.90;;;;;;5079451;28;20173;-85
2022/02/01 08:57:25;;;;;;;20.73;13.33;;;6.20;99.90;;;;;;5089427;28;20172;-87
2022/02/01 08:59:55;;;;;;;18.37;12.80;;;6.30;99.90;;;;;;5084720;28;20172;-87
2022/02/01 09:02:27;;;;;;;18.83;13.17;;;6.30;99.90;;;;;;5082482;28;20241;-87
2022/02/01 09:04:54;;;;;;;16.37;12.20;;;6.30;99.90;;;;;;5079194;28;20649;-86
2022/02/01 09:07:21;;;;;;;17.53;12.93;;;6.40;99.90;;;;;;5079781;28;20172;-88
2022/02/01 09:09:50;;;;;;;18.73;12.40;;;6.40;99.90;;;;;;5079432;28;20204;-88
2022/02/01 09:12:17;;;;;;;18.30;13.83;;;6.50;99.90;;;;;;5077979;28;20188;-86
2022/02/01 09:14:46;;;;;;;23.93;14.30;;;6.50;99.90;;;;;;5080010;28;20329;-89
2022/02/01 09:17:14;;;;;;;23.07;13.97;;;6.60;99.90;;;;;;5079921;28;20176;-85
2022/02/01 09:19:44;;;;;;;24.40;14.50;;;6.60;99.90;;;;;;5079580;28;20180;-86
2022/02/01 09:22:11;;;;;;;21.07;13.57;;;6.60;99.90;;;;;;5078133;28;20172;-87
2022/02/01 09:24:38;;;;;;;21.10;14.53;;;6.60;99.90;;;;;;5078030;28;20160;-86
2022/02/01 09:27:04;;;;;;;21.73;14.23;;;6.60;99.90;;;;;;5080468;28;20176;-87
2022/02/01 09:29:32;;;;;;;18.23;14.40;;;6.60;99.90;;;;;;5081968;28;20227;-88
2022/02/01 09:31:58;;;;;;;20.67;15.10;;;6.60;99.90;;;;;;5080137;28;20254;-87
2022/02/01 09:34:24;;;;;;;19.80;14.03;;;6.70;99.90;;;;;;5080930;28;20176;-88
2022/02/01 09:36:53;;;;;;;24.60;14.83;;;6.70;99.90;;;;;;5079641;28;20193;-88
2022/02/01 09:39:26;;;;;;;20.27;15.53;;;6.70;99.90;;;;;;5082482;28;20199;-86
2022/02/01 09:41:53;;;;;;;18.40;13.60;;;6.70;99.90;;;;;;5092949;28;20184;-87
2022/02/01 09:44:21;;;;;;;20.00;14.10;;;6.70;99.90;;;;;;5097952;28;20194;-88
2022/02/01 09:46:52;;;;;;;19.47;15.10;;;6.80;99.90;;;;;;5098318;28;20247;-87
2022/02/01 09:49:30;;;;;;;21.67;14.87;;;6.80;99.90;;;;;;5078718;28;20215;-87
2022/02/01 09:51:58;;;;;;;21.00;14.00;;;6.80;99.90;;;;;;5079063;28;20261;-86
2022/02/01 09:54:28;;;;;;;24.57;16.27;;;6.80;99.90;;;;;;5076481;28;20172;-88
2022/02/01 09:56:54;;;;;;;21.03;14.73;;;6.90;99.90;;;;;;5076681;28;20172;-87
2022/02/01 09:59:34;;;;;;;15.53;12.60;;;6.90;99.90;;;;;;5078443;28;20638;-87
2022/02/01 10:02:12;;;;;;;19.60;13.40;;;6.90;99.90;;;;;;5078260;28;20620;-88
2022/02/01 10:05:10;;;;;;;19.47;13.77;;;6.90;99.90;;;;;;5076635;28;20203;-88
2022/02/01 10:07:53;;;;;;;18.43;13.20;;;7.00;99.90;;;;;;5078393;28;20161;-89
2022/02/01 10:10:21;;;;;;;17.73;11.60;;;7.00;99.90;;;;;;5077318;28;20684;-89
2022/02/01 10:13:15;;;;;;;15.67;12.70;;;7.00;99.90;;;;;;5078069;28;20188;-88
2022/02/01 10:16:27;;;;;;;17.73;12.17;;;7.00;99.90;;;;;;5078040;28;20636;-87
2022/02/01 10:18:44;;;;;;;19.37;12.13;;;7.00;99.90;;;;;;5078374;28;20192;-90
2022/02/01 10:21:13;;;;;;;18.00;12.47;;;7.00;99.90;;;;;;5081454;28;20226;-87
2022/02/01 10:23:44;;;;;;;15.33;11.63;;;7.10;99.90;;;;;;5079527;28;20168;-89
2022/02/01 10:26:21;;;;;;;15.33;12.40;;;7.30;99.90;;;;;;5077532;28;20184;-89
2022/02/01 10:31:49;;;;;;;13.47;12.07;;;7.20;99.90;;;;;;5078941;28;20153;-91
2022/02/01 10:36:51;;;;;;;14.57;12.53;;;7.20;99.90;;;;;;5078237;28;20192;-89
2022/02/01 10:39:25;;;;;;;14.30;11.77;;;7.20;99.90;;;;;;5080153;28;20184;-88
2022/02/01 10:42:00;;;;;;;15.90;11.83;;;7.20;99.90;;;;;;5080758;28;20229;-88
2022/02/01 10:45:24;;;;;;;16.17;11.77;;;7.20;99.90;;;;;;5079906;28;20164;-86
2022/02/01 10:47:43;;;;;;;16.43;10.47;;;7.20;99.90;;;;;;5085683;28;20180;-89
2022/02/01 10:50:11;;;;;;;14.53;11.00;;;7.20;99.90;;;;;;5086497;28;20215;-89
2022/02/01 10:52:40;;;;;;;14.93;10.93;;;7.20;99.90;;;;;;5093185;28;20159;-86
2022/02/01 10:55:08;;;;;;;14.07;10.73;;;7.40;99.90;;;;;;5096935;28;20176;-87
2022/02/01 10:57:34;;;;;;;15.87;12.57;;;7.30;99.90;;;;;;5093756;28;20580;-86
2022/02/01 11:00:05;;;;;;;17.50;13.10;;;7.40;99.90;;;;;;5092586;28;20172;-88
2022/02/01 11:02:37;;;;;;;13.97;11.57;;;7.40;99.90;;;;;;5092565;28;20184;-88
2022/02/01 11:05:06;;;;;;;14.87;12.00;;;7.60;99.90;;;;;;5091580;28;20275;-88
2022/02/01 11:07:32;;;;;;;14.47;11.70;;;7.50;99.90;;;;;;5098714;28;20232;-86
2022/02/01 11:10:00;;;;;;;16.30;12.50;;;7.40;99.90;;;;;;5096866;28;20191;-87
2022/02/01 11:12:34;;;;;;;15.37;12.77;;;7.50;99.90;;;;;;5094789;28;20161;-87
2022/02/01 11:14:59;;;;;;;17.77;13.37;;;7.50;99.90;;;;;;5092002;28;20196;-86
2022/02/01 11:17:25;;;;;;;17.53;13.13;;;7.60;99.90;;;;;;5098190;28;20181;-91
2022/02/01 11:19:57;;;;;;;19.30;13.93;;;7.60;99.90;;;;;;5090869;28;20263;-90
2022/02/01 11:22:31;;;;;;;17.57;13.30;;;7.60;99.90;;;;;;5083422;28;20172;-87
2022/02/01 11:25:00;;;;;;;18.17;14.03;;;7.60;99.90;;;;;;5083301;28;20200;-88
2022/02/01 11:30:41;;;;;;;18.40;14.57;;;7.80;99.90;;;;;;5084507;28;20219;-89
2022/02/01 11:33:09;;;;;;;18.63;14.10;;;7.80;99.90;;;;;;5082125;28;20218;-88
2022/02/01 11:35:36;;;;;;;19.53;13.90;;;7.90;99.90;;;;;;5081839;28;20277;-89
2022/02/01 11:38:15;;;;;;;15.70;12.67;;;7.90;99.90;;;;;;5077000;23;20211;-86
2022/02/01 11:40:46;;;;;;;18.53;14.30;;;8.00;99.90;;;;;;5041597;28;20193;-90
2022/02/01 11:43:13;;;;;;;17.53;13.50;;;8.00;99.90;;;;;;5024190;28;20241;-87
2022/02/01 11:45:43;;;;;;;18.93;13.27;;;8.10;99.90;;;;;;5006736;28;20200;-87
2022/02/01 11:48:38;;;;;;;18.83;14.03;;;8.00;99.90;;;;;;5003997;28;20696;-89
2022/02/01 11:51:12;;;;;;;16.13;12.50;;;8.00;99.90;;;;;;5006401;28;20221;-86
2022/02/01 11:53:44;;;;;;;18.77;13.60;;;8.10;99.90;;;;;;5003747;28;20642;-87
2022/02/01 11:56:17;;;;;;;18.37;13.03;;;8.20;99.90;;;;;;5004050;28;20189;-88
2022/02/01 11:58:49;;;;;;;18.37;13.53;;;8.20;99.90;;;;;;5004267;28;20166;-87
2022/02/01 12:01:32;;;;;;;18.87;12.10;;;8.20;99.90;;;;;;5005496;28;20175;-85
2022/02/01 12:04:14;;;;;;;19.80;13.07;;;8.30;99.90;;;;;;5004426;28;20178;-89
2022/02/01 12:06:47;;;;;;;22.53;12.20;;;8.30;99.90;;;;;;5021893;28;20179;-87
2022/02/01 12:09:21;;;;;;;23.07;14.67;;;8.40;99.90;;;;;;5005911;28;20538;-88
2022/02/01 12:11:55;;;;;;;19.20;12.43;;;8.40;99.90;;;;;;5005308;28;20174;-88
2022/02/01 12:14:21;;;;;;;19.40;12.97;;;8.40;99.90;;;;;;5004918;28;20265;-88
2022/02/01 12:16:52;;;;;;;18.80;12.23;;;8.50;99.90;;;;;;5010983;28;20208;-91
2022/02/01 12:19:44;;;;;;;19.40;10.63;;;8.60;99.90;;;;;;5017180;28;20186;-86
2022/02/01 12:22:31;;;;;;;16.03;10.23;;;8.60;99.90;;;;;;5040500;28;20146;-87
2022/02/01 12:25:08;;;;;;;21.20;10.77;;;8.70;99.90;;;;;;5022922;28;20194;-87
2022/02/01 12:27:39;;;;;;;18.40;10.17;;;8.80;99.90;;;;;;5006021;28;20174;-92
2022/02/01 12:30:09;;;;;;;17.13;10.50;;;8.80;99.90;;;;;;5004652;28;20202;-87
2022/02/01 12:32:35;;;;;;;19.63;9.57;;;8.90;99.90;;;;;;5004366;28;20171;-86
2022/02/01 12:35:03;;;;;;;20.40;9.83;;;9.00;99.90;;;;;;5024560;28;20265;-87
2022/02/01 12:37:31;;;;;;;16.17;9.27;;;9.00;99.90;;;;;;5021372;28;20201;-89
2022/02/01 12:40:09;;;;;;;16.43;8.23;;;9.00;99.90;;;;;;5021480;28;20201;-90
2022/02/01 12:42:50;;;;;;;17.17;9.60;;;9.10;99.90;;;;;;5004395;28;20529;-89
2022/02/01 12:48:04;;;;;;;18.47;9.23;;;9.20;99.90;;;;;;5021795;28;20181;-87
2022/02/01 12:50:31;;;;;;;15.37;8.60;;;9.20;99.90;;;;;;5019109;28;20222;-85
2022/02/01 12:53:06;;;;;;;18.80;11.13;;;9.20;99.90;;;;;;5021653;28;20189;-86
2022/02/01 12:55:32;;;;;;;30.40;14.87;;;9.50;99.90;;;;;;5022110;28;20200;-86
2022/02/01 12:58:04;;;;;;;59.57;27.23;;;9.30;99.90;;;;;;5040692;28;20180;-87
2022/02/01 13:00:30;;;;;;;19.47;8.83;;;9.40;99.90;;;;;;5026981;28;20178;-86
2022/02/01 13:03:03;;;;;;;13.33;6.77;;;9.50;99.90;;;;;;5024138;28;20551;-86
2022/02/01 13:05:30;;;;;;;19.67;8.53;;;9.50;99.90;;;;;;5022835;28;20178;-87
2022/02/01 13:21:24;;;;;;;17.67;9.97;;;9.60;99.90;;;;;;5038815;28;20595;-86
2022/02/01 13:23:56;;;;;;;14.73;8.50;;;9.70;99.90;;;;;;5021545;28;20613;-86
2022/02/01 13:26:34;;;;;;;22.37;8.93;;;9.70;99.90;;;;;;5020771;28;20174;-88
2022/02/01 13:29:05;;;;;;;22.97;12.00;;;9.80;99.90;;;;;;5039415;28;20209;-86
2022/02/01 13:31:34;;;;;;;24.87;13.03;;;9.80;99.90;;;;;;5020888;28;20166;-88
2022/02/01 13:34:12;;;;;;;25.30;16.97;;;9.90;99.90;;;;;;5020923;28;20181;-88
2022/02/01 13:36:43;;;;;;;13.10;6.60;;;10.00;99.90;;;;;;5019714;28;20200;-87
2022/02/01 13:39:21;;;;;;;10.63;6.40;;;10.00;99.90;;;;;;5021190;28;20645;-89
2022/02/01 13:42:02;;;;;;;17.87;7.03;;;10.00;99.90;;;;;;5020675;28;20170;-87
2022/02/01 13:44:34;;;;;;;16.30;8.03;;;10.10;99.90;;;;;;5037614;28;20285;-87
2022/02/01 13:47:09;;;;;;;14.23;8.73;;;10.20;99.90;;;;;;5020055;28;20239;-87
2022/02/01 13:49:38;;;;;;;18.40;8.10;;;10.20;99.90;;;;;;5020454;28;20205;-87
2022/02/01 13:52:06;;;;;;;15.87;8.60;;;10.30;99.90;;;;;;5019545;28;20197;-87
2022/02/01 13:54:38;;;;;;;17.67;8.77;;;10.30;99.90;;;;;;5020373;28;20174;-85
2022/02/01 13:57:14;;;;;;;22.33;11.50;;;10.40;99.90;;;;;;5023676;28;20200;-84
2022/02/01 13:59:40;;;;;;;24.57;11.53;;;10.40;99.90;;;;;;5020123;28;20551;-85
2022/02/01 14:02:09;;;;;;;16.50;7.83;;;10.50;99.90;;;;;;5019847;28;20189;-87
2022/02/01 14:04:47;;;;;;;17.17;7.30;;;10.50;99.90;;;;;;5020831;28;20205;-86
2022/02/01 14:08:03;;;;;;;12.47;6.07;;;10.50;99.90;;;;;;5022598;28;20190;-86
2022/02/01 14:10:12;;;;;;;15.20;6.30;;;10.60;99.90;;;;;;5028548;28;20573;-86
2022/02/01 14:34:35;;;;;;;12.43;5.17;;;10.80;99.90;;;;;;5025281;28;20633;-87
2022/02/01 14:37:07;;;;;;;9.23;5.43;;;10.80;99.90;;;;;;5020259;28;20228;-89
2022/02/01 14:45:05;;;;;;;12.70;7.00;;;11.00;99.90;;;;;;5058464;28;20222;-86
2022/02/01 14:47:34;;;;;;;11.33;7.07;;;11.00;99.90;;;;;;5022685;28;20240;-86
2022/02/01 14:50:07;;;;;;;24.13;13.63;;;11.00;99.90;;;;;;5057419;28;20246;-86
2022/02/01 14:53:15;;;;;;;19.60;10.43;;;11.00;99.90;;;;;;5028074;28;20181;-85
2022/02/01 14:55:52;;;;;;;9.17;4.90;;;11.00;99.90;;;;;;5045053;28;20188;-89
2022/02/01 15:04:12;;;;;;;10.80;4.87;;;11.00;99.90;;;;;;5052914;28;20208;-87
2022/02/01 15:14:19;;;;;;;11.30;5.67;;;11.10;99.60;;;;;;5056696;28;20181;-86
2022/02/01 15:16:48;;;;;;;11.60;5.33;;;11.20;99.70;;;;;;5050695;28;20239;-87
2022/02/01 15:19:44;;;;;;;10.43;4.47;;;11.20;99.20;;;;;;5042708;28;20176;-86
2022/02/01 15:22:10;;;;;;;10.70;5.07;;;11.20;99.10;;;;;;5022754;28;20176;-85
2022/02/01 15:24:37;;;;;;;8.33;4.83;;;11.30;99.00;;;;;;5035108;28;20193;-88
2022/02/01 15:27:04;;;;;;;11.53;5.10;;;11.20;98.90;;;;;;5023465;28;20192;-86